createdAt,value
2022-10-18T00:02:13.528Z,99250.84
2022-10-18T00:04:39.971Z,99250.06
2022-10-18T00:07:06.489Z,99256.16
2022-10-18T00:09:33.372Z,99257.09
2022-10-18T00:12:00.771Z,99256.38
2022-10-18T00:14:27.199Z,99246.91
2022-10-18T00:16:53.817Z,99247.81
2022-10-18T00:19:20.219Z,99252.94
2022-10-18T00:21:46.623Z,99262.53
2022-10-18T00:24:13.032Z,99253.91
2022-10-18T00:26:39.439Z,99252.28
2022-10-18T00:29:05.990Z,99259.34
2022-10-18T00:31:37.631Z,99257.63
2022-10-18T00:34:14.265Z,99260.25
2022-10-18T00:36:41.273Z,99257.78
2022-10-18T00:39:09.374Z,99257.84
2022-10-18T00:41:38.006Z,99252.72
2022-10-18T00:44:10.639Z,99251.91
2022-10-18T00:46:39.738Z,99249.34
2022-10-18T00:49:37.502Z,99249.38
2022-10-18T00:52:15.450Z,99253.69
2022-10-18T00:54:44.194Z,99257.16
2022-10-18T00:57:11.833Z,99252.03
2022-10-18T00:59:38.666Z,99254.53
2022-10-18T01:02:06.624Z,99255.41
2022-10-18T01:04:33.483Z,99250.31
2022-10-18T01:07:47.478Z,99251.34
2022-10-18T01:10:25.442Z,99252.28
2022-10-18T01:13:12.982Z,99252.31
2022-10-18T01:15:52.759Z,99246.28
2022-10-18T01:18:36.962Z,99246.28
2022-10-18T01:21:16.862Z,99243.75
2022-10-18T01:24:13.760Z,99242.94
2022-10-18T01:26:43.070Z,99248.13
2022-10-18T01:29:25.220Z,99242.97
2022-10-18T01:32:04.819Z,99243.03
2022-10-18T01:34:36.155Z,99245.66
2022-10-18T01:37:07.832Z,99243.09
2022-10-18T01:39:38.534Z,99243.97
2022-10-18T01:42:10.376Z,99241.41
2022-10-18T01:44:38.998Z,99239.69
2022-10-18T01:47:09.384Z,99237.09
2022-10-18T01:49:35.823Z,99228.47
2022-10-18T01:52:02.344Z,99230.19
2022-10-18T01:54:36.359Z,99227.63
2022-10-18T01:57:16.886Z,99228.53
2022-10-18T01:59:56.374Z,99226.03
2022-10-18T02:02:25.690Z,99220.09
2022-10-18T02:05:07.334Z,99213.25
2022-10-18T02:07:55.261Z,99211.66
2022-10-18T02:10:48.687Z,99209.94
2022-10-18T02:13:19.080Z,99203.94
2022-10-18T02:15:48.626Z,99208.34
2022-10-18T02:18:20.881Z,99207.53
2022-10-18T02:20:48.751Z,99212.72
2022-10-18T02:23:18.886Z,99217.06
2022-10-18T02:25:45.383Z,99216.22
2022-10-18T02:28:11.861Z,99217.91
2022-10-18T02:30:48.507Z,99219.63
2022-10-18T02:33:21.938Z,99223.06
2022-10-18T02:35:56.870Z,99223.91
2022-10-18T02:38:25.302Z,99221.44
2022-10-18T02:40:51.784Z,99225.72
2022-10-18T02:43:18.285Z,99227.47
2022-10-18T02:45:44.769Z,99230.09
2022-10-18T02:48:11.176Z,99224.16
2022-10-18T02:50:37.558Z,99229.28
2022-10-18T02:53:04.367Z,99219.88
2022-10-18T02:55:30.756Z,99219.03
2022-10-18T02:57:57.201Z,99216.44
2022-10-18T03:00:23.632Z,99226.78
2022-10-18T03:02:50.158Z,99230.22
2022-10-18T03:05:16.687Z,99231.97
2022-10-18T03:07:43.118Z,99226.78
2022-10-18T03:10:09.745Z,99225.16
2022-10-18T03:12:36.159Z,99220.09
2022-10-18T03:15:02.921Z,99213.22
2022-10-18T03:17:29.618Z,99213.19
2022-10-18T03:19:56.245Z,99214.94
2022-10-18T03:22:22.855Z,99214.94
2022-10-18T03:24:49.368Z,99217.50
2022-10-18T03:27:15.805Z,99209.78
2022-10-18T03:29:42.639Z,99213.22
2022-10-18T03:32:09.107Z,99210.63
2022-10-18T03:34:35.505Z,99208.97
2022-10-18T03:37:04.749Z,99204.66
2022-10-18T03:39:32.021Z,99209.81
2022-10-18T03:41:58.428Z,99196.91
2022-10-18T03:44:39.308Z,99199.50
2022-10-18T03:47:05.707Z,99196.88
2022-10-18T03:51:58.659Z,99197.81
2022-10-18T03:54:25.189Z,99197.00
2022-10-18T03:56:51.628Z,99199.50
2022-10-18T03:59:18.159Z,99198.53
2022-10-18T04:01:44.677Z,99199.38
2022-10-18T04:04:11.214Z,99195.13
2022-10-18T04:06:37.843Z,99198.47
2022-10-18T04:09:07.839Z,99194.16
2022-10-18T04:11:36.814Z,99195.03
2022-10-18T04:14:03.349Z,99195.06
2022-10-18T04:16:29.855Z,99192.44
2022-10-18T04:18:56.413Z,99195.81
2022-10-18T04:21:22.833Z,99196.69
2022-10-18T04:23:50.389Z,99196.63
2022-10-18T04:26:17.374Z,99197.34
2022-10-18T04:28:44.006Z,99199.91
2022-10-18T04:31:11.883Z,99197.34
2022-10-18T04:33:38.452Z,99199.06
2022-10-18T04:36:05.110Z,99198.22
2022-10-18T04:38:31.580Z,99192.25
2022-10-18T04:40:58.002Z,99196.59
2022-10-18T04:43:24.523Z,99190.50
2022-10-18T04:45:51.186Z,99194.75
2022-10-18T04:48:18.304Z,99197.25
2022-10-18T04:50:48.420Z,99196.34
2022-10-18T04:53:15.882Z,99198.94
2022-10-18T04:55:49.756Z,99195.50
2022-10-18T04:58:17.647Z,99192.88
2022-10-18T05:00:44.084Z,99198.78
2022-10-18T05:03:13.095Z,99194.44
2022-10-18T05:06:00.326Z,99194.34
2022-10-18T05:08:26.244Z,99187.41
2022-10-18T05:10:52.777Z,99182.13
2022-10-18T05:13:19.275Z,99184.75
2022-10-18T05:15:48.987Z,99183.78
2022-10-18T05:18:15.702Z,99179.53
2022-10-18T05:20:42.295Z,99171.81
2022-10-18T05:23:11.345Z,99165.06
2022-10-18T05:25:39.536Z,99167.59
2022-10-18T05:28:15.618Z,99168.47
2022-10-18T05:30:52.745Z,99173.41
2022-10-18T05:33:19.159Z,99165.47
2022-10-18T05:35:45.567Z,99170.34
2022-10-18T05:38:12.462Z,99164.03
2022-10-18T05:40:39.437Z,99164.66
2022-10-18T05:43:05.872Z,99166.03
2022-10-18T05:45:32.279Z,99158.13
2022-10-18T05:47:58.732Z,99165.09
2022-10-18T05:50:25.183Z,99169.53
2022-10-18T05:52:51.640Z,99173.88
2022-10-18T05:55:18.078Z,99172.13
2022-10-18T05:57:49.793Z,99172.09
2022-10-18T06:00:16.819Z,99177.47
2022-10-18T06:02:43.393Z,99164.69
2022-10-18T06:05:09.862Z,99178.47
2022-10-18T06:07:36.278Z,99169.88
2022-10-18T06:10:02.765Z,99177.69
2022-10-18T06:12:29.233Z,99178.59
2022-10-18T06:14:55.662Z,99178.59
2022-10-18T06:17:22.078Z,99182.09
2022-10-18T06:19:48.980Z,99187.34
2022-10-18T06:22:15.526Z,99190.75
2022-10-18T06:24:41.992Z,99190.75
2022-10-18T06:27:10.461Z,99194.06
2022-10-18T06:29:37.878Z,99202.66
2022-10-18T06:32:06.018Z,99191.44
2022-10-18T06:34:33.180Z,99199.03
2022-10-18T06:36:59.911Z,99192.97
2022-10-18T06:39:26.396Z,99193.88
2022-10-18T06:41:53.053Z,99192.13
2022-10-18T06:44:22.744Z,99200.56
2022-10-18T06:46:49.690Z,99200.41
2022-10-18T06:49:19.195Z,99192.59
2022-10-18T06:51:46.236Z,99189.13
2022-10-18T06:54:18.094Z,99186.47
2022-10-18T06:56:45.081Z,99186.31
2022-10-18T06:59:11.595Z,99180.06
2022-10-18T07:01:38.098Z,99177.06
2022-10-18T07:04:04.786Z,99183.56
2022-10-18T07:06:31.310Z,99189.19
2022-10-18T07:08:57.804Z,99191.47
2022-10-18T07:11:26.782Z,99187.56
2022-10-18T07:13:54.800Z,99190.69
2022-10-18T07:16:21.765Z,99192.91
2022-10-18T07:18:50.887Z,99195.19
2022-10-18T07:21:20.249Z,99194.84
2022-10-18T07:23:47.379Z,99207.47
2022-10-18T07:26:18.186Z,99205.44
2022-10-18T07:28:46.614Z,99211.56
2022-10-18T07:31:13.332Z,99214.97
2022-10-18T07:33:40.044Z,99211.31
2022-10-18T07:36:08.897Z,99214.69
2022-10-18T07:38:35.729Z,99217.81
2022-10-18T07:41:04.423Z,99214.69
2022-10-18T07:43:30.918Z,99204.13
2022-10-18T07:45:59.622Z,99213.56
2022-10-18T07:48:26.495Z,99206.19
2022-10-18T07:50:53.555Z,99206.41
2022-10-18T07:53:19.958Z,99210.44
2022-10-18T07:55:46.396Z,99211.59
2022-10-18T07:58:12.885Z,99212.97
2022-10-18T08:00:40.172Z,99217.41
2022-10-18T08:03:06.772Z,99210.88
2022-10-18T08:08:07.943Z,99207.53
2022-10-18T08:10:35.776Z,99208.97
2022-10-18T08:13:02.157Z,99210.00
2022-10-18T08:15:28.563Z,99221.56
2022-10-18T08:17:54.959Z,99223.84
2022-10-18T08:20:30.515Z,99217.47
2022-10-18T08:23:00.137Z,99222.63
2022-10-18T08:25:27.620Z,99227.38
2022-10-18T08:27:54.160Z,99227.38
2022-10-18T08:30:20.597Z,99230.47
2022-10-18T08:32:47.014Z,99230.94
2022-10-18T08:35:13.473Z,99233.75
2022-10-18T08:37:40.338Z,99233.84
2022-10-18T08:40:07.386Z,99234.78
2022-10-18T08:42:52.616Z,99228.31
2022-10-18T08:45:37.386Z,99223.53
2022-10-18T08:48:07.265Z,99224.84
2022-10-18T08:50:36.881Z,99219.66
2022-10-18T08:53:13.902Z,99220.97
2022-10-18T08:55:52.534Z,99225.38
2022-10-18T08:58:30.770Z,99223.94
2022-10-18T09:01:33.765Z,99216.56
2022-10-18T09:04:06.197Z,99215.06
2022-10-18T09:06:40.734Z,99211.25
2022-10-18T09:09:16.125Z,99217.25
2022-10-18T09:12:11.915Z,99213.72
2022-10-18T09:14:45.895Z,99210.13
2022-10-18T09:17:24.894Z,99225.34
2022-10-18T09:20:16.305Z,99226.84
2022-10-18T09:22:51.563Z,99222.84
2022-10-18T09:25:19.818Z,99224.31
2022-10-18T09:27:53.647Z,99222.13
2022-10-18T09:30:26.592Z,99226.81
2022-10-18T09:33:21.924Z,99233.19
2022-10-18T09:35:57.296Z,99225.13
2022-10-18T09:38:30.788Z,99234.81
2022-10-18T09:41:18.187Z,99233.06
2022-10-18T09:43:54.435Z,99232.28
2022-10-18T09:46:26.081Z,99237.25
2022-10-18T09:49:03.642Z,99237.41
2022-10-18T09:51:36.174Z,99237.03
2022-10-18T09:54:20.525Z,99239.34
2022-10-18T09:59:36.024Z,99238.31
2022-10-18T10:02:03.154Z,99242.78
2022-10-18T10:04:30.972Z,99245.09
2022-10-18T10:07:00.728Z,99246.38
2022-10-18T10:09:58.114Z,99249.00
2022-10-18T10:12:36.715Z,99249.56
2022-10-18T10:15:13.868Z,99252.09
2022-10-18T10:17:40.344Z,99244.09
2022-10-18T10:20:25.320Z,99243.31
2022-10-18T10:22:52.998Z,99242.63
2022-10-18T10:25:41.038Z,99242.09
2022-10-18T10:28:15.178Z,99231.16
2022-10-18T10:30:41.846Z,99239.38
2022-10-18T10:33:35.501Z,99233.66
2022-10-18T10:36:05.642Z,99237.63
2022-10-18T10:38:32.285Z,99239.13
2022-10-18T10:40:59.267Z,99235.25
2022-10-18T10:43:43.035Z,99231.34
2022-10-18T10:46:16.143Z,99225.34
2022-10-18T10:49:15.314Z,99226.13
2022-10-18T10:51:44.432Z,99229.75
2022-10-18T10:54:20.444Z,99223.41
2022-10-18T10:57:16.525Z,99222.94
2022-10-18T10:59:48.986Z,99220.56
2022-10-18T11:02:15.402Z,99226.28
2022-10-18T11:04:42.516Z,99218.88
2022-10-18T11:07:08.881Z,99221.06
2022-10-18T11:09:50.738Z,99218.44
2022-10-18T11:12:22.511Z,99222.91
2022-10-18T11:15:12.069Z,99228.13
2022-10-18T11:20:37.119Z,99237.16
2022-10-18T11:23:10.888Z,99236.78
2022-10-18T11:25:58.641Z,99237.47
2022-10-18T11:28:47.921Z,99230.00
2022-10-18T11:31:20.387Z,99222.91
2022-10-18T11:34:10.578Z,99224.56
2022-10-18T11:36:56.390Z,99225.38
2022-10-18T11:40:02.923Z,99211.06
2022-10-18T11:42:47.981Z,99211.94
2022-10-18T11:48:20.020Z,99209.88
2022-10-18T11:51:14.777Z,99206.44
2022-10-18T11:54:03.088Z,99204.50
2022-10-18T11:57:01.937Z,99205.78
2022-10-18T11:59:38.338Z,99202.94
2022-10-18T12:02:21.504Z,99198.56
2022-10-18T12:04:59.824Z,99205.19
2022-10-18T12:07:56.649Z,99202.38
2022-10-18T12:10:37.792Z,99203.22
2022-10-18T12:13:17.335Z,99201.53
2022-10-18T12:15:45.029Z,99200.13
2022-10-18T12:18:19.045Z,99201.81
2022-10-18T12:20:55.022Z,99196.59
2022-10-18T12:23:39.158Z,99200.63
2022-10-18T12:26:09.659Z,99202.03
2022-10-18T12:29:07.994Z,99207.25
2022-10-18T12:31:48.351Z,99198.97
2022-10-18T12:34:36.357Z,99193.53
2022-10-18T12:37:40.869Z,99191.78
2022-10-18T12:40:20.486Z,99193.06
2022-10-18T12:42:50.845Z,99202.28
2022-10-18T12:45:25.772Z,99197.56
2022-10-18T12:47:53.197Z,99191.66
2022-10-18T12:50:32.670Z,99193.69
2022-10-18T12:53:26.597Z,99202.09
2022-10-18T12:55:54.704Z,99191.72
2022-10-18T12:58:23.315Z,99196.47
2022-10-18T13:00:49.688Z,99199.56
2022-10-18T13:03:19.349Z,99207.66
2022-10-18T13:05:54.423Z,99202.56
2022-10-18T13:08:28.044Z,99206.59
2022-10-18T13:11:10.048Z,99207.41
2022-10-18T13:14:01.495Z,99203.59
2022-10-18T13:16:39.959Z,99200.31
2022-10-18T13:20:24.445Z,99207.09
2022-10-18T13:25:55.102Z,99205.06
2022-10-18T13:28:30.958Z,99204.31
2022-10-18T13:31:23.439Z,99211.47
2022-10-18T13:33:50.157Z,99207.13
2022-10-18T13:36:24.869Z,99205.22
2022-10-18T13:38:55.668Z,99205.00
2022-10-18T13:41:43.798Z,99208.53
2022-10-18T13:44:11.951Z,99218.66
2022-10-18T13:46:38.542Z,99214.94
2022-10-18T13:49:14.729Z,99213.81
2022-10-18T13:51:53.038Z,99226.50
2022-10-18T13:54:37.681Z,99235.88
2022-10-18T13:57:22.419Z,99235.97
2022-10-18T14:00:24.980Z,99237.44
2022-10-18T14:03:54.932Z,99238.72
2022-10-18T14:06:26.860Z,99246.94
2022-10-18T14:09:06.184Z,99240.59
2022-10-18T14:11:46.288Z,99241.72
2022-10-18T14:14:15.553Z,99246.63
2022-10-18T14:16:56.980Z,99242.44
2022-10-18T14:19:32.646Z,99238.78
2022-10-18T14:22:11.514Z,99237.06
2022-10-18T14:24:43.590Z,99237.38
2022-10-18T14:27:20.448Z,99238.91
2022-10-18T14:29:48.293Z,99234.03
2022-10-18T14:32:29.269Z,99231.34
2022-10-18T14:35:20.655Z,99235.66
2022-10-18T14:37:43.478Z,99239.25
2022-10-18T14:40:28.911Z,99240.38
2022-10-18T14:42:55.428Z,99237.78
2022-10-18T14:45:23.235Z,99237.16
2022-10-18T14:47:49.802Z,99230.59
2022-10-18T14:50:30.358Z,99224.09
2022-10-18T14:52:57.399Z,99220.34
2022-10-18T14:55:26.033Z,99215.38
2022-10-18T14:57:52.732Z,99213.25
2022-10-18T15:00:33.799Z,99210.69
2022-10-18T15:03:02.526Z,99208.94
2022-10-18T15:05:28.961Z,99217.84
2022-10-18T15:07:58.025Z,99210.78
2022-10-18T15:10:28.836Z,99217.91
2022-10-18T15:13:16.557Z,99214.56
2022-10-18T15:15:44.120Z,99214.25
2022-10-18T15:18:25.222Z,99221.63
2022-10-18T15:21:23.761Z,99213.94
2022-10-18T15:23:51.579Z,99220.25
2022-10-18T15:26:29.514Z,99224.03
2022-10-18T15:29:00.554Z,99224.75
2022-10-18T15:31:33.025Z,99233.38
2022-10-18T15:34:15.274Z,99238.94
2022-10-18T15:36:44.986Z,99234.00
2022-10-18T15:39:18.967Z,99240.22
2022-10-18T15:41:52.729Z,99233.47
2022-10-18T15:44:28.307Z,99226.44
2022-10-18T15:47:09.017Z,99227.66
2022-10-18T15:49:44.690Z,99229.66
2022-10-18T15:52:26.000Z,99233.31
2022-10-18T15:54:52.431Z,99239.69
2022-10-18T15:57:18.950Z,99238.91
2022-10-18T15:59:54.870Z,99238.31
2022-10-18T16:02:21.435Z,99237.59
2022-10-18T16:04:47.940Z,99239.34
2022-10-18T16:07:14.405Z,99241.28
2022-10-18T16:09:41.020Z,99233.59
2022-10-18T16:12:07.495Z,99234.59
2022-10-18T16:14:34.033Z,99244.19
2022-10-18T16:17:03.923Z,99240.13
2022-10-18T16:19:32.047Z,99245.38
2022-10-18T16:22:05.948Z,99244.53
2022-10-18T16:24:33.051Z,99246.47
2022-10-18T16:26:59.490Z,99256.34
2022-10-18T16:29:28.498Z,99252.03
2022-10-18T16:31:58.142Z,99253.72
2022-10-18T16:34:29.451Z,99260.13
2022-10-18T16:36:55.998Z,99266.22
2022-10-18T16:39:22.987Z,99269.78
2022-10-18T16:41:51.229Z,99277.47
2022-10-18T16:44:19.134Z,99276.94
2022-10-18T16:46:46.495Z,99285.56
2022-10-18T16:49:22.702Z,99291.00
2022-10-18T16:51:50.275Z,99289.19
2022-10-18T16:54:16.803Z,99296.16
2022-10-18T16:56:43.239Z,99290.31
2022-10-18T16:59:27.774Z,99301.63
2022-10-18T17:01:54.392Z,99308.69
2022-10-18T17:04:20.941Z,99306.03
2022-10-18T17:06:49.085Z,99317.34
2022-10-18T17:09:15.930Z,99311.16
2022-10-18T17:11:42.575Z,99312.09
2022-10-18T17:14:08.987Z,99313.94
2022-10-18T17:16:37.078Z,99310.56
2022-10-18T17:19:06.701Z,99313.16
2022-10-18T17:21:33.829Z,99314.06
2022-10-18T17:24:04.311Z,99322.63
2022-10-18T17:26:31.229Z,99322.84
2022-10-18T17:29:03.789Z,99328.97
2022-10-18T17:31:31.494Z,99326.44
2022-10-18T17:33:58.820Z,99326.50
2022-10-18T17:36:25.873Z,99330.88
2022-10-18T17:38:53.660Z,99330.03
2022-10-18T17:41:20.948Z,99331.78
2022-10-18T17:43:48.331Z,99327.50
2022-10-18T17:46:15.408Z,99329.22
2022-10-18T17:48:42.576Z,99333.69
2022-10-18T17:51:11.086Z,99335.47
2022-10-18T17:53:37.839Z,99332.91
2022-10-18T17:56:05.086Z,99328.66
2022-10-18T17:58:31.638Z,99332.22
2022-10-18T18:00:58.495Z,99333.22
2022-10-18T18:03:24.975Z,99332.44
2022-10-18T18:05:51.461Z,99328.19
2022-10-18T18:08:17.914Z,99326.59
2022-10-18T18:10:44.443Z,99325.09
2022-10-18T18:13:11.176Z,99332.16
2022-10-18T18:15:37.997Z,99331.38
2022-10-18T18:18:04.441Z,99334.09
2022-10-18T18:20:30.962Z,99335.94
2022-10-18T18:22:57.505Z,99337.78
2022-10-18T18:25:23.932Z,99335.53
2022-10-18T18:27:50.378Z,99330.59
2022-10-18T18:30:18.003Z,99331.53
2022-10-18T18:32:44.657Z,99331.69
2022-10-18T18:35:11.527Z,99340.56
2022-10-18T18:37:37.953Z,99335.72
2022-10-18T18:40:04.748Z,99346.22
2022-10-18T18:42:32.560Z,99342.06
2022-10-18T18:44:59.097Z,99339.53
2022-10-18T18:47:27.131Z,99337.97
2022-10-18T18:49:53.562Z,99340.66
2022-10-18T18:52:19.996Z,99338.31
2022-10-18T18:54:46.421Z,99340.22
2022-10-18T18:57:12.870Z,99345.50
2022-10-18T18:59:39.354Z,99348.19
2022-10-18T19:02:05.789Z,99345.69
2022-10-18T19:04:32.838Z,99343.41
2022-10-18T19:06:59.244Z,99341.69
2022-10-18T19:09:27.329Z,99340.91
2022-10-18T19:11:56.235Z,99337.44
2022-10-18T19:14:25.018Z,99337.44
2022-10-18T19:16:54.584Z,99342.75
2022-10-18T19:19:23.047Z,99336.00
2022-10-18T19:21:52.336Z,99335.34
2022-10-18T19:24:20.506Z,99331.97
2022-10-18T19:26:54.407Z,99332.03
2022-10-18T19:29:24.842Z,99326.19
2022-10-18T19:31:53.915Z,99334.94
2022-10-18T19:34:21.837Z,99333.09
2022-10-18T19:36:49.218Z,99338.31
2022-10-18T19:39:18.635Z,99334.19
2022-10-18T19:41:50.643Z,99335.09
2022-10-18T19:44:20.729Z,99335.09
2022-10-18T19:46:48.172Z,99340.28
2022-10-18T19:49:14.976Z,99339.41
2022-10-18T19:51:41.954Z,99338.53
2022-10-18T19:54:11.422Z,99340.25
2022-10-18T19:56:38.070Z,99339.38
2022-10-18T19:59:04.574Z,99347.22
2022-10-18T20:01:31.104Z,99346.41
2022-10-18T20:03:57.652Z,99352.28
2022-10-18T20:06:24.237Z,99351.41
2022-10-18T20:08:51.460Z,99354.00
2022-10-18T20:11:22.022Z,99358.31
2022-10-18T20:13:48.499Z,99359.16
2022-10-18T20:16:16.555Z,99348.69
2022-10-18T20:18:43.365Z,99354.75
2022-10-18T20:21:11.886Z,99354.66
2022-10-18T20:23:40.670Z,99355.34
2022-10-18T20:26:20.531Z,99355.34
2022-10-18T20:28:55.546Z,99357.94
2022-10-18T20:31:27.616Z,99353.56
2022-10-18T20:33:59.400Z,99356.97
2022-10-18T20:36:27.396Z,99358.63
2022-10-18T20:38:54.814Z,99363.78
2022-10-18T20:41:24.336Z,99361.13
2022-10-18T20:44:00.997Z,99364.50
2022-10-18T20:46:30.552Z,99364.47
2022-10-18T20:48:57.153Z,99362.72
2022-10-18T20:51:24.032Z,99360.03
2022-10-18T20:53:51.153Z,99361.66
2022-10-18T20:56:20.471Z,99365.91
2022-10-18T20:58:49.207Z,99367.63
2022-10-18T21:01:21.202Z,99367.56
2022-10-18T21:03:49.646Z,99354.44
2022-10-18T21:06:17.098Z,99363.19
2022-10-18T21:08:44.428Z,99363.22
2022-10-18T21:11:11.905Z,99360.56
2022-10-18T21:13:40.716Z,99364.97
2022-10-18T21:16:07.735Z,99364.22
2022-10-18T21:18:36.771Z,99368.50
2022-10-18T21:21:08.384Z,99368.50
2022-10-18T21:23:35.444Z,99368.56
2022-10-18T21:26:01.917Z,99364.28
2022-10-18T21:28:28.351Z,99363.50
2022-10-18T21:30:54.800Z,99357.53
2022-10-18T21:33:21.258Z,99356.75
2022-10-18T21:35:47.680Z,99355.19
2022-10-18T21:38:14.082Z,99354.38
2022-10-18T21:40:44.510Z,99351.78
2022-10-18T21:43:11.839Z,99354.31
2022-10-18T21:45:38.265Z,99356.97
2022-10-18T21:48:04.895Z,99350.97
2022-10-18T21:50:34.029Z,99353.78
2022-10-18T21:53:00.489Z,99354.84
2022-10-18T21:55:26.995Z,99348.78
2022-10-18T21:57:53.521Z,99342.72
2022-10-18T22:00:20.057Z,99345.31
2022-10-18T22:02:46.557Z,99340.06
2022-10-18T22:05:13.008Z,99338.31
2022-10-18T22:07:39.507Z,99351.44
2022-10-18T22:10:06.342Z,99354.97
2022-10-18T22:12:32.770Z,99346.34
2022-10-18T22:14:59.294Z,99345.50
2022-10-18T22:17:26.040Z,99344.72
2022-10-18T22:19:52.425Z,99347.41
2022-10-18T22:22:18.858Z,99338.75
2022-10-18T22:24:45.254Z,99336.09
2022-10-18T22:27:11.726Z,99336.16
2022-10-18T22:29:38.179Z,99335.44
2022-10-18T22:32:04.783Z,99342.25
2022-10-18T22:34:31.247Z,99341.53
2022-10-18T22:36:57.645Z,99339.88
2022-10-18T22:39:24.608Z,99339.13
2022-10-18T22:41:55.691Z,99350.53
2022-10-18T22:44:22.314Z,99353.19
2022-10-18T22:46:49.327Z,99343.81
2022-10-18T22:49:15.936Z,99336.84
2022-10-18T22:51:42.373Z,99329.19
2022-10-18T22:54:08.990Z,99325.84
2022-10-18T22:56:35.437Z,99329.56
2022-10-18T22:59:01.879Z,99321.81
2022-10-18T23:01:28.406Z,99324.47
2022-10-18T23:03:56.841Z,99332.31
2022-10-18T23:06:34.808Z,99331.59
2022-10-18T23:09:05.403Z,99335.97
2022-10-18T23:11:32.718Z,99333.41
2022-10-18T23:13:59.221Z,99331.63
2022-10-18T23:16:25.618Z,99331.63
2022-10-18T23:18:54.680Z,99330.88
2022-10-18T23:21:24.122Z,99327.47
2022-10-18T23:23:51.720Z,99331.13
2022-10-18T23:26:21.049Z,99324.31
2022-10-18T23:28:49.125Z,99319.22
2022-10-18T23:31:34.818Z,99331.22
2022-10-18T23:34:04.757Z,99334.03
2022-10-18T23:36:32.473Z,99332.41
2022-10-18T23:38:59.275Z,99338.47
2022-10-18T23:41:26.095Z,99337.66
2022-10-18T23:43:52.890Z,99342.97
2022-10-18T23:46:20.489Z,99342.97
2022-10-18T23:48:47.508Z,99344.66
2022-10-18T23:51:14.914Z,99345.81
2022-10-18T23:53:41.432Z,99348.56
2022-10-18T23:56:11.182Z,99351.28
2022-10-18T23:58:38.688Z,99352.19
